Time;durP1;ratioP1;P1;durP2;ratioP2;P2;SDS_P1;SDS_P2;PMS_P1;PMS_P2;Temp;Humidity;BMP_temperature;BMP_pressure;BME280_temperature;BME280_humidity;BME280_pressure;Samples;Min_cycle;Max_cycle;Signal;HPM_P1;HPM_P2
2022/12/04 00:01:08;;;;;;;39.15;23.38;;;;;;;;;;4862292;29;20025;-92
2022/12/04 00:03:33;;;;;;;;;;;;;;;;;;4862911;29;20057;-92
2022/12/04 00:06:10;;;;;;;44.97;25.52;;;;;;;;;;4862093;29;19947;-92
2022/12/04 00:08:36;;;;;;;37.60;23.77;;;;;;;;;;4862341;29;20029;-91
2022/12/04 00:11:07;;;;;;;43.00;24.80;;;;;;;;;;4862016;29;20040;-92
2022/12/04 00:13:33;;;;;;;37.42;23.23;;;;;;;;;;4862336;29;20124;-92
2022/12/04 00:15:59;;;;;;;38.55;24.83;;;;;;;;;;4862390;29;20063;-92
2022/12/04 00:18:26;;;;;;;38.20;23.95;;;;;;;;;;4861955;29;20029;-93
2022/12/04 00:20:52;;;;;;;47.80;27.33;;;;;;;;;;4862114;29;20036;-92
2022/12/04 00:23:19;;;;;;;47.03;27.77;;;;;;;;;;4861811;29;20043;-93
2022/12/04 00:25:48;;;;;;;39.22;25.25;;;;;;;;;;4862172;29;20656;-92
2022/12/04 00:28:15;;;;;;;41.67;25.20;;;;;;;;;;4861904;29;20029;-93
2022/12/04 00:30:43;;;;;;;50.35;29.20;;;;;;;;;;4861819;29;20063;-93
2022/12/04 00:33:10;;;;;;;41.10;25.88;;;;;;;;;;4862135;29;20025;-93
2022/12/04 00:35:36;;;;;;;44.10;26.38;;;;;;;;;;4862173;29;20137;-93
2022/12/04 00:38:02;;;;;;;35.70;23.08;;;;;;;;;;4861897;29;20025;-92
2022/12/04 00:40:28;;;;;;;33.00;22.40;;;;;;;;;;4862154;29;20033;-93
2022/12/04 00:42:54;;;;;;;45.50;26.80;;;;;;;;;;4861929;29;20063;-93
2022/12/04 00:45:21;;;;;;;46.92;27.88;;;;;;;;;;4861861;29;20041;-93
2022/12/04 00:47:47;;;;;;;40.15;25.15;;;;;;;;;;4875280;29;20227;-91
2022/12/04 00:50:13;;;;;;;39.88;25.45;;;;;;;;;;4872440;29;20100;-93
2022/12/04 00:52:39;;;;;;;41.28;25.85;;;;;;;;;;4863092;29;20029;-93
2022/12/04 00:55:05;;;;;;;45.25;27.25;;;;;;;;;;4861129;29;20025;-92
2022/12/04 00:57:31;;;;;;;43.17;26.75;;;;;;;;;;4861999;29;20428;-91
2022/12/04 00:59:58;;;;;;;45.10;26.98;;;;;;;;;;4861601;29;20109;-93
2022/12/04 01:02:24;;;;;;;43.55;26.38;;;;;;;;;;4861901;29;20089;-93
2022/12/04 01:04:50;;;;;;;38.70;25.17;;;;;;;;;;4861813;29;20145;-93
2022/12/04 01:07:16;;;;;;;40.17;26.13;;;;;;;;;;4861768;29;20044;-93
2022/12/04 01:09:44;;;;;;;41.38;25.58;;;;;;;;;;4861659;29;20077;-93
2022/12/04 01:12:10;;;;;;;42.63;25.50;;;;;;;;;;4861816;29;20040;-93
2022/12/04 01:14:36;;;;;;;40.85;25.38;;;;;;;;;;4861621;29;20025;-93
2022/12/04 01:17:02;;;;;;;38.55;24.08;;;;;;;;;;4861225;29;20137;-93
2022/12/04 01:19:29;;;;;;;36.53;23.42;;;;;;;;;;4861285;29;20029;-93
2022/12/04 01:21:55;;;;;;;38.83;26.00;;;;;;;;;;4861384;29;20189;-92
2022/12/04 01:24:21;;;;;;;36.42;24.83;;;;;;;;;;4861395;29;20046;-93
2022/12/04 01:26:47;;;;;;;36.80;24.30;;;;;;;;;;4861562;29;20039;-95
2022/12/04 01:32:17;;;;;;;35.10;23.15;;;;;;;;;;4878130;29;20092;-93
2022/12/04 01:39:55;;;;;;;41.08;26.83;;;;;;;;;;4892578;23;20053;-92
2022/12/04 01:42:21;;;;;;;41.60;26.38;;;;;;;;;;4861739;29;20519;-93
2022/12/04 01:45:07;;;;;;;40.55;25.85;;;;;;;;;;4864927;29;20120;-93
2022/12/04 01:47:34;;;;;;;40.60;24.90;;;;;;;;;;4864968;29;20036;-93
2022/12/04 01:50:00;;;;;;;45.30;26.77;;;;;;;;;;4864773;29;20040;-93
2022/12/04 01:52:26;;;;;;;39.08;25.33;;;;;;;;;;4864883;29;20056;-93
2022/12/04 01:54:56;;;;;;;41.38;25.95;;;;;;;;;;4864992;29;20148;-93
2022/12/04 01:57:24;;;;;;;38.97;23.83;;;;;;;;;;4864440;29;20032;-93
2022/12/04 02:00:08;;;;;;;34.20;23.02;;;;;;;;;;4864824;29;20037;-93
2022/12/04 02:02:39;;;;;;;35.55;23.48;;;;;;;;;;4865779;29;20809;-93
2022/12/04 02:05:06;;;;;;;35.05;24.33;;;;;;;;;;4868110;29;20037;-91
2022/12/04 02:07:33;;;;;;;36.40;24.95;;;;;;;;;;4868582;29;20037;-93
2022/12/04 02:10:05;;;;;;;36.92;23.35;;;;;;;;;;4864422;29;20178;-92
2022/12/04 02:12:54;;;;;;;36.63;22.77;;;;;;;;;;4864223;29;20124;-92
2022/12/04 02:15:28;;;;;;;32.28;21.63;;;;;;;;;;4856739;29;20084;-94
2022/12/04 02:18:04;;;;;;;31.63;20.92;;;;;;;;;;4864100;29;20416;-92
2022/12/04 02:20:40;;;;;;;33.20;21.75;;;;;;;;;;4864176;29;20041;-92
2022/12/04 02:23:19;;;;;;;31.90;21.48;;;;;;;;;;4863645;29;20052;-93
2022/12/04 02:25:52;;;;;;;30.42;21.75;;;;;;;;;;4863385;29;20037;-92
2022/12/04 02:28:21;;;;;;;36.00;22.95;;;;;;;;;;4864195;29;20076;-92
2022/12/04 02:30:50;;;;;;;32.70;21.40;;;;;;;;;;4863703;29;20037;-93
2022/12/04 02:33:48;;;;;;;34.28;22.98;;;;;;;;;;4863797;29;20040;-92
2022/12/04 02:36:22;;;;;;;35.95;22.15;;;;;;;;;;4863365;29;20029;-93
2022/12/04 02:38:54;;;;;;;32.80;20.27;;;;;;;;;;4863366;29;20136;-93
2022/12/04 02:41:27;;;;;;;32.30;21.13;;;;;;;;;;4863630;29;20029;-93
2022/12/04 02:43:58;;;;;;;30.83;20.95;;;;;;;;;;4863200;29;20500;-94
2022/12/04 02:46:44;;;;;;;28.52;20.00;;;;;;;;;;4863445;29;20087;-93
2022/12/04 02:49:23;;;;;;;32.40;20.30;;;;;;;;;;4863776;29;20121;-90
2022/12/04 02:51:50;;;;;;;32.30;20.65;;;;;;;;;;4877495;29;20074;-91
2022/12/04 02:54:19;;;;;;;28.63;18.83;;;;;;;;;;4876219;29;20036;-93
2022/12/04 02:56:46;;;;;;;31.05;19.02;;;;;;;;;;4868405;29;20044;-94
2022/12/04 02:59:16;;;;;;;28.77;18.67;;;;;;;;;;4863543;29;20040;-93
2022/12/04 03:01:45;;;;;;;29.63;19.50;;;;;;;;;;4863078;29;20467;-94
2022/12/04 03:04:14;;;;;;;31.13;19.63;;;;;;;;;;4863305;29;20373;-93
2022/12/04 03:06:43;;;;;;;30.48;19.50;;;;;;;;;;4862883;29;20036;-93
2022/12/04 03:09:17;;;;;;;31.23;19.17;;;;;;;;;;4863031;29;20033;-92
2022/12/04 03:11:46;;;;;;;34.85;19.60;;;;;;;;;;4862797;29;20486;-93
2022/12/04 03:14:19;;;;;;;35.28;21.45;;;;;;;;;;4862973;29;20045;-93
2022/12/04 03:16:47;;;;;;;30.70;19.55;;;;;;;;;;4862816;29;20067;-94
2022/12/04 03:19:16;;;;;;;30.65;18.55;;;;;;;;;;4862889;29;20040;-94
2022/12/04 03:21:46;;;;;;;26.02;17.45;;;;;;;;;;4862846;29;20040;-92
2022/12/04 03:24:14;;;;;;;25.92;16.55;;;;;;;;;;4862362;29;20053;-92
2022/12/04 03:26:43;;;;;;;28.05;17.10;;;;;;;;;;4862747;29;20064;-92
2022/12/04 03:29:21;;;;;;;26.83;17.48;;;;;;;;;;4862758;29;20037;-93
2022/12/04 03:31:50;;;;;;;27.20;17.98;;;;;;;;;;4862867;29;20041;-94
2022/12/04 03:34:23;;;;;;;25.35;16.67;;;;;;;;;;4862630;29;20025;-93
2022/12/04 03:36:52;;;;;;;27.70;16.63;;;;;;;;;;4862279;29;20120;-92
2022/12/04 03:39:25;;;;;;;31.48;20.77;;;;;;;;;;4862465;29;20116;-92
2022/12/04 03:41:54;;;;;;;28.27;18.05;;;;;;;;;;4862276;29;20025;-93
2022/12/04 03:44:23;;;;;;;29.63;18.98;;;;;;;;;;4862102;29;20029;-92
2022/12/04 03:46:59;;;;;;;30.20;19.20;;;;;;;;;;4862663;29;20052;-93
2022/12/04 03:49:32;;;;;;;35.10;20.50;;;;;;;;;;4862096;29;20060;-92
2022/12/04 03:51:58;;;;;;;;;;;;;;;;;;4863027;29;20033;-93
2022/12/04 03:54:30;;;;;;;34.67;20.52;;;;;;;;;;4862133;29;20334;-93
2022/12/04 03:57:00;;;;;;;32.35;19.63;;;;;;;;;;4862487;29;20029;-94
2022/12/04 03:59:28;;;;;;;28.50;18.67;;;;;;;;;;4862383;29;20493;-93
2022/12/04 04:01:56;;;;;;;31.17;18.60;;;;;;;;;;4862550;29;20025;-93
2022/12/04 04:04:25;;;;;;;31.45;19.50;;;;;;;;;;4862226;29;20513;-93
2022/12/04 04:06:56;;;;;;;26.73;17.20;;;;;;;;;;4861623;29;20151;-92
2022/12/04 04:09:25;;;;;;;27.40;17.58;;;;;;;;;;4862211;29;20017;-93
2022/12/04 04:26:17;;;;;;;35.10;20.17;;;;;;;;;;4878495;29;20131;-93
2022/12/04 04:28:43;;;;;;;33.40;20.42;;;;;;;;;;4862256;29;20040;-93
2022/12/04 04:31:24;;;;;;;36.40;22.13;;;;;;;;;;4862173;29;20044;-90
2022/12/04 04:34:09;;;;;;;31.80;20.42;;;;;;;;;;4861707;29;20040;-92
2022/12/04 04:36:37;;;;;;;29.17;19.65;;;;;;;;;;4862645;29;20479;-93
2022/12/04 04:39:19;;;;;;;30.83;19.67;;;;;;;;;;4862274;29;20035;-92
2022/12/04 04:41:57;;;;;;;31.15;19.63;;;;;;;;;;4862208;29;20036;-93
2022/12/04 04:44:27;;;;;;;37.17;21.00;;;;;;;;;;4862505;29;20383;-93
2022/12/04 04:46:56;;;;;;;32.65;21.60;;;;;;;;;;4861861;29;20033;-92
2022/12/04 04:49:25;;;;;;;32.20;19.85;;;;;;;;;;4862084;29;20163;-94
2022/12/04 04:51:52;;;;;;;30.70;19.40;;;;;;;;;;4861607;29;20052;-93
2022/12/04 04:54:19;;;;;;;28.95;19.20;;;;;;;;;;4871415;29;20040;-91
2022/12/04 04:56:46;;;;;;;30.90;20.48;;;;;;;;;;4874571;29;20036;-94
2022/12/04 04:59:13;;;;;;;32.40;20.92;;;;;;;;;;4862531;29;20033;-92
2022/12/04 05:01:40;;;;;;;35.28;23.00;;;;;;;;;;4861646;29;20029;-92
2022/12/04 05:04:07;;;;;;;32.17;19.98;;;;;;;;;;4861737;29;20037;-93
2022/12/04 05:06:33;;;;;;;32.30;20.42;;;;;;;;;;4861400;29;20070;-93
2022/12/04 05:09:00;;;;;;;29.88;18.38;;;;;;;;;;4861421;29;20029;-92
2022/12/04 05:11:26;;;;;;;33.92;21.27;;;;;;;;;;4861799;29;20030;-94
2022/12/04 05:13:52;;;;;;;34.33;22.80;;;;;;;;;;4861576;29;20108;-94
2022/12/04 05:16:18;;;;;;;31.02;20.42;;;;;;;;;;4861869;29;20060;-94
2022/12/04 05:19:52;;;;;;;36.65;22.95;;;;;;;;;;4863851;29;20033;-94
2022/12/04 05:21:31;;;;;;;31.73;19.52;;;;;;;;;;4882459;29;20045;-94
2022/12/04 05:23:57;;;;;;;28.58;18.48;;;;;;;;;;4880663;29;20036;-93
2022/12/04 05:26:23;;;;;;;33.20;20.63;;;;;;;;;;4880653;29;20040;-93
2022/12/04 05:28:49;;;;;;;34.40;22.33;;;;;;;;;;4880416;29;20055;-94
2022/12/04 05:31:16;;;;;;;31.92;20.92;;;;;;;;;;4880354;29;20036;-94
2022/12/04 05:33:42;;;;;;;33.40;21.52;;;;;;;;;;4881569;29;20060;-92
2022/12/04 05:36:10;;;;;;;33.65;21.52;;;;;;;;;;4881402;29;20032;-92
2022/12/04 05:38:37;;;;;;;33.47;21.48;;;;;;;;;;4880808;29;20040;-92
2022/12/04 05:41:04;;;;;;;35.22;20.20;;;;;;;;;;4880713;29;20033;-92
2022/12/04 05:43:31;;;;;;;36.25;21.60;;;;;;;;;;4880197;29;20033;-92
2022/12/04 05:46:01;;;;;;;36.00;22.20;;;;;;;;;;4880141;29;20047;-92
2022/12/04 05:48:27;;;;;;;35.70;21.67;;;;;;;;;;4879720;29;20380;-92
2022/12/04 05:50:53;;;;;;;35.50;21.02;;;;;;;;;;4879978;29;20041;-91
2022/12/04 05:53:19;;;;;;;41.08;23.58;;;;;;;;;;4879863;29;20092;-93
2022/12/04 05:55:53;;;;;;;37.75;23.65;;;;;;;;;;4880515;29;20041;-92
2022/12/04 05:58:19;;;;;;;39.67;24.02;;;;;;;;;;4880266;29;20053;-91
2022/12/04 06:03:49;;;;;;;33.20;20.67;;;;;;;;;;4885075;29;20040;-93
2022/12/04 06:06:17;;;;;;;37.65;23.25;;;;;;;;;;4879859;29;20297;-93
2022/12/04 06:08:43;;;;;;;36.50;22.40;;;;;;;;;;4880614;29;20153;-92
2022/12/04 06:11:20;;;;;;;36.72;22.63;;;;;;;;;;4880003;29;20430;-93
2022/12/04 06:13:46;;;;;;;39.60;24.48;;;;;;;;;;4879699;29;20475;-93
2022/12/04 06:16:13;;;;;;;37.50;24.15;;;;;;;;;;4879676;29;20085;-94
2022/12/04 06:18:40;;;;;;;42.17;24.50;;;;;;;;;;4879711;29;20039;-94
2022/12/04 06:21:06;;;;;;;41.65;26.17;;;;;;;;;;4867083;29;20494;-93
2022/12/04 06:23:32;;;;;;;40.80;26.20;;;;;;;;;;4864726;29;20041;-93
2022/12/04 06:26:02;;;;;;;39.72;25.67;;;;;;;;;;4863915;29;20065;-94
2022/12/04 06:28:28;;;;;;;43.28;26.83;;;;;;;;;;4864203;29;20045;-94
2022/12/04 06:30:54;;;;;;;36.65;23.73;;;;;;;;;;4864038;29;20112;-91
2022/12/04 06:33:20;;;;;;;36.58;22.95;;;;;;;;;;4849144;29;20036;-93
2022/12/04 06:35:47;;;;;;;44.47;27.10;;;;;;;;;;4864120;29;20494;-94
2022/12/04 06:38:14;;;;;;;37.72;25.17;;;;;;;;;;4868349;29;20032;-91
2022/12/04 06:40:40;;;;;;;37.72;25.38;;;;;;;;;;4869922;29;20084;-92
2022/12/04 06:43:06;;;;;;;45.78;29.58;;;;;;;;;;4865868;29;20029;-94
2022/12/04 06:45:32;;;;;;;43.40;28.27;;;;;;;;;;4864784;29;20044;-94
2022/12/04 06:47:58;;;;;;;45.90;29.35;;;;;;;;;;4863755;29;20084;-94
2022/12/04 06:50:25;;;;;;;40.38;25.63;;;;;;;;;;4863783;29;20032;-94
2022/12/04 06:52:51;;;;;;;41.17;26.75;;;;;;;;;;4863715;29;20037;-91
2022/12/04 07:04:03;;;;;;;41.15;26.33;;;;;;;;;;5184520;23;20614;-93
2022/12/04 07:06:31;;;;;;;45.88;29.08;;;;;;;;;;4863013;29;20133;-92
2022/12/04 07:08:58;;;;;;;48.80;31.58;;;;;;;;;;4865213;29;20057;-91
2022/12/04 07:11:25;;;;;;;48.53;30.77;;;;;;;;;;4864193;29;20084;-93
2022/12/04 07:14:03;;;;;;;59.88;32.45;;;;;;;;;;4864911;29;20278;-90
2022/12/04 07:16:29;;;;;;;48.80;30.65;;;;;;;;;;4863229;29;20036;-92
2022/12/04 07:18:56;;;;;;;51.05;31.85;;;;;;;;;;4863477;29;20080;-93
2022/12/04 07:21:23;;;;;;;52.05;32.30;;;;;;;;;;4864346;29;20073;-92
2022/12/04 07:23:51;;;;;;;52.28;31.90;;;;;;;;;;4864561;29;20490;-92
2022/12/04 07:26:18;;;;;;;46.30;29.17;;;;;;;;;;4862857;29;20041;-92
2022/12/04 07:28:44;;;;;;;44.20;28.80;;;;;;;;;;4850727;29;20085;-92
2022/12/04 07:31:11;;;;;;;46.45;30.55;;;;;;;;;;4874894;29;20033;-94
2022/12/04 07:33:37;;;;;;;42.97;28.80;;;;;;;;;;4866656;29;20032;-89
2022/12/04 07:36:04;;;;;;;45.58;28.08;;;;;;;;;;4863030;29;20075;-90
2022/12/04 07:38:31;;;;;;;48.63;29.50;;;;;;;;;;4863712;29;20039;-92
2022/12/04 07:41:01;;;;;;;45.75;30.38;;;;;;;;;;4862232;29;20521;-91
2022/12/04 07:43:29;;;;;;;44.53;27.42;;;;;;;;;;4862927;29;20459;-93
2022/12/04 07:45:55;;;;;;;39.92;26.65;;;;;;;;;;4863301;29;20077;-91
2022/12/04 07:48:22;;;;;;;42.03;26.55;;;;;;;;;;4862794;29;20040;-94
2022/12/04 07:50:48;;;;;;;38.40;25.42;;;;;;;;;;4864196;29;20028;-93
2022/12/04 07:53:15;;;;;;;40.10;25.27;;;;;;;;;;4863146;29;20036;-92
2022/12/04 07:55:41;;;;;;;39.13;23.35;;;;;;;;;;4872603;29;20145;-94
2022/12/04 07:58:08;;;;;;;42.35;25.52;;;;;;;;;;4867552;29;20118;-94
2022/12/04 08:00:35;;;;;;;38.70;25.33;;;;;;;;;;4866982;29;20093;-96
2022/12/04 08:03:01;;;;;;;40.72;24.92;;;;;;;;;;4865640;29;20049;-94
2022/12/04 08:05:27;;;;;;;37.47;23.58;;;;;;;;;;4866878;29;20057;-93
2022/12/04 08:07:54;;;;;;;40.03;24.70;;;;;;;;;;4871461;29;20032;-95
2022/12/04 08:15:27;;;;;;;41.33;24.67;;;;;;;;;;4882602;29;20057;-92
2022/12/04 08:18:33;;;;;;;39.33;25.38;;;;;;;;;;4873298;29;20053;-96
2022/12/04 08:21:12;;;;;;;39.33;24.40;;;;;;;;;;4885337;29;20040;-94
2022/12/04 08:23:39;;;;;;;33.17;21.08;;;;;;;;;;4868945;29;20037;-92
2022/12/04 08:26:12;;;;;;;33.65;21.52;;;;;;;;;;4865545;29;20040;-94
2022/12/04 08:28:38;;;;;;;32.55;21.83;;;;;;;;;;4866734;29;20032;-92
2022/12/04 08:31:05;;;;;;;33.63;21.50;;;;;;;;;;4867276;29;20032;-94
2022/12/04 08:33:31;;;;;;;36.13;21.52;;;;;;;;;;4864885;29;20596;-95
2022/12/04 08:35:57;;;;;;;37.17;22.65;;;;;;;;;;4864306;29;20038;-93
2022/12/04 08:38:24;;;;;;;38.40;22.88;;;;;;;;;;4868835;29;20029;-93
2022/12/04 08:40:50;;;;;;;31.50;20.30;;;;;;;;;;4871077;29;20029;-93
2022/12/04 08:43:23;;;;;;;31.83;20.58;;;;;;;;;;4866059;29;20116;-94
2022/12/04 08:45:57;;;;;;;35.58;22.63;;;;;;;;;;4850401;29;20045;-93
2022/12/04 08:48:24;;;;;;;36.20;22.20;;;;;;;;;;4866483;29;20025;-94
2022/12/04 08:50:50;;;;;;;37.53;23.55;;;;;;;;;;4859558;29;20034;-92
2022/12/04 08:53:16;;;;;;;34.55;22.00;;;;;;;;;;4876825;29;20050;-91
2022/12/04 08:55:42;;;;;;;36.33;21.73;;;;;;;;;;4881962;29;20029;-91
2022/12/04 08:58:08;;;;;;;35.22;22.52;;;;;;;;;;4883234;29;20059;-91
2022/12/04 09:00:34;;;;;;;33.20;21.45;;;;;;;;;;4882295;29;20056;-90
2022/12/04 09:03:00;;;;;;;33.17;21.40;;;;;;;;;;4882254;29;20025;-90
2022/12/04 09:05:27;;;;;;;34.75;21.70;;;;;;;;;;4882721;29;20041;-92
2022/12/04 09:07:57;;;;;;;32.85;19.95;;;;;;;;;;4878768;29;20077;-91
2022/12/04 09:10:24;;;;;;;35.83;21.00;;;;;;;;;;4868971;29;20160;-90
2022/12/04 09:12:50;;;;;;;33.88;20.83;;;;;;;;;;4872917;29;20062;-90
2022/12/04 09:15:16;;;;;;;33.63;20.90;;;;;;;;;;4867344;29;20498;-91
2022/12/04 09:17:42;;;;;;;36.15;22.50;;;;;;;;;;4866914;29;20025;-93
2022/12/04 09:20:14;;;;;;;36.55;22.42;;;;;;;;;;4866838;29;20033;-92
2022/12/04 09:22:41;;;;;;;34.05;20.77;;;;;;;;;;4867451;29;20084;-91
2022/12/04 09:25:07;;;;;;;34.42;22.23;;;;;;;;;;4870835;29;20108;-92
2022/12/04 09:27:36;;;;;;;35.22;21.73;;;;;;;;;;4882209;29;20444;-91
2022/12/04 09:30:03;;;;;;;28.35;18.30;;;;;;;;;;4882607;29;20055;-90
2022/12/04 09:32:29;;;;;;;29.98;19.17;;;;;;;;;;4881945;29;20044;-94
2022/12/04 09:34:56;;;;;;;28.27;18.70;;;;;;;;;;4882274;29;20029;-93
2022/12/04 09:37:23;;;;;;;29.40;18.17;;;;;;;;;;4882222;29;20033;-93
2022/12/04 09:50:41;;;;;;;31.13;18.33;;;;;;;;;;4900901;29;20060;-91
2022/12/04 09:53:15;;;;;;;33.55;19.25;;;;;;;;;;4886197;29;20176;-92
2022/12/04 09:55:57;;;;;;;29.23;16.88;;;;;;;;;;4885250;29;20492;-93
2022/12/04 09:58:24;;;;;;;26.63;16.98;;;;;;;;;;4884869;29;20482;-92
2022/12/04 10:00:51;;;;;;;32.28;18.20;;;;;;;;;;4888032;29;20521;-94
2022/12/04 10:03:19;;;;;;;30.85;19.50;;;;;;;;;;4896933;29;20475;-92
2022/12/04 10:05:49;;;;;;;23.67;15.48;;;;;;;;;;4883492;29;20040;-91
2022/12/04 10:08:34;;;;;;;28.48;17.55;;;;;;;;;;4881086;29;20036;-93
2022/12/04 10:11:12;;;;;;;28.60;17.38;;;;;;;;;;4885049;29;20124;-91
2022/12/04 10:13:57;;;;;;;24.77;16.13;;;;;;;;;;4892055;29;20474;-93
2022/12/04 10:16:26;;;;;;;29.55;17.42;;;;;;;;;;4899397;29;20020;-91
2022/12/04 10:19:04;;;;;;;21.92;13.93;;;;;;;;;;4886889;29;20390;-93
2022/12/04 10:21:40;;;;;;;23.25;15.10;;;;;;;;;;4894496;29;20079;-90
2022/12/04 10:24:09;;;;;;;24.50;14.93;;;;;;;;;;4900579;29;20024;-93
2022/12/04 10:26:38;;;;;;;27.95;16.02;;;;;;;;;;4903332;29;20040;-92
2022/12/04 10:29:12;;;;;;;24.90;14.35;;;;;;;;;;4895343;29;20027;-92
2022/12/04 10:31:39;;;;;;;24.83;15.25;;;;;;;;;;4884813;29;20549;-94
2022/12/04 10:34:12;;;;;;;22.50;14.63;;;;;;;;;;4884450;29;20410;-93
2022/12/04 10:36:39;;;;;;;21.77;14.07;;;;;;;;;;4884444;29;20029;-92
2022/12/04 10:39:05;;;;;;;21.02;13.18;;;;;;;;;;4886292;29;20036;-92
2022/12/04 10:41:41;;;;;;;21.20;13.98;;;;;;;;;;4885982;29;20415;-93
2022/12/04 10:44:09;;;;;;;22.88;13.63;;;;;;;;;;4885075;29;20073;-93
2022/12/04 10:46:35;;;;;;;18.27;11.93;;;;;;;;;;4886395;29;20040;-93
2022/12/04 10:49:05;;;;;;;20.90;13.88;;;;;;;;;;4887516;29;20060;-96
2022/12/04 10:51:38;;;;;;;19.27;12.88;;;;;;;;;;4884703;29;20036;-92
2022/12/04 10:54:23;;;;;;;20.05;13.80;;;;;;;;;;4884438;29;20028;-94
2022/12/04 10:56:53;;;;;;;17.20;12.13;;;;;;;;;;4901519;29;20037;-91
2022/12/04 10:59:19;;;;;;;19.70;13.57;;;;;;;;;;4883892;29;20028;-90
2022/12/04 11:01:46;;;;;;;22.95;13.27;;;;;;;;;;4884919;29;20032;-93
2022/12/04 11:04:23;;;;;;;20.30;13.00;;;;;;;;;;4884333;29;20039;-92
2022/12/04 11:06:50;;;;;;;21.33;13.82;;;;;;;;;;4883938;29;20135;-89
2022/12/04 11:09:29;;;;;;;19.55;13.40;;;;;;;;;;4886714;29;20057;-95
2022/12/04 11:12:04;;;;;;;18.90;12.60;;;;;;;;;;4884393;29;20064;-93
2022/12/04 11:14:31;;;;;;;18.95;12.63;;;;;;;;;;4882896;29;20024;-91
2022/12/04 11:17:01;;;;;;;19.80;12.82;;;;;;;;;;4889749;29;20050;-89
2022/12/04 11:19:30;;;;;;;18.33;12.98;;;;;;;;;;4903207;29;20052;-90
2022/12/04 11:23:00;;;;;;;25.10;14.88;;;;;;;;;;4902459;29;20035;-92
2022/12/04 11:28:04;;;;;;;24.45;14.68;;;;;;;;;;4921067;29;20042;-91
2022/12/04 11:30:33;;;;;;;23.63;13.85;;;;;;;;;;4890435;29;20042;-93
2022/12/04 11:33:00;;;;;;;21.48;14.32;;;;;;;;;;4904166;29;20024;-93
2022/12/04 11:35:27;;;;;;;17.45;12.32;;;;;;;;;;4903479;29;20032;-93
2022/12/04 11:38:12;;;;;;;18.77;11.55;;;;;;;;;;4889795;29;20096;-91
2022/12/04 11:40:38;;;;;;;16.17;11.27;;;;;;;;;;4883816;29;20028;-92
2022/12/04 11:43:11;;;;;;;18.00;12.02;;;;;;;;;;4883583;29;20036;-93
2022/12/04 11:45:37;;;;;;;17.38;11.70;;;;;;;;;;4884988;29;20040;-93
2022/12/04 11:48:12;;;;;;;15.48;10.25;;;;;;;;;;4885845;29;20036;-94
2022/12/04 11:50:57;;;;;;;17.30;10.55;;;;;;;;;;4852214;29;20045;-95
2022/12/04 11:53:56;;;;;;;16.38;10.35;;;;;;;;;;4880153;29;20033;-92
2022/12/04 11:56:22;;;;;;;17.10;11.48;;;;;;;;;;4849379;29;20094;-94
2022/12/04 11:59:03;;;;;;;17.80;12.05;;;;;;;;;;4879421;29;20395;-94
2022/12/04 12:01:35;;;;;;;15.85;10.60;;;;;;;;;;4880637;29;20115;-91
2022/12/04 12:04:18;;;;;;;16.10;11.20;;;;;;;;;;4879162;29;20455;-95
2022/12/04 12:06:54;;;;;;;15.57;10.88;;;;;;;;;;4872898;29;20051;-93
2022/12/04 12:09:35;;;;;;;15.98;10.98;;;;;;;;;;4864192;29;20391;-93
2022/12/04 12:12:05;;;;;;;14.45;10.07;;;;;;;;;;4864649;29;20029;-92
2022/12/04 12:14:31;;;;;;;17.10;10.00;;;;;;;;;;4881764;23;20172;-91
2022/12/04 12:17:12;;;;;;;16.02;10.98;;;;;;;;;;4866428;29;20035;-93
2022/12/04 12:19:57;;;;;;;18.08;12.35;;;;;;;;;;4866634;29;20037;-93
2022/12/04 12:22:26;;;;;;;15.32;10.77;;;;;;;;;;4885784;29;20032;-90
2022/12/04 12:25:12;;;;;;;17.58;11.68;;;;;;;;;;4865829;29;20475;-93
2022/12/04 12:28:15;;;;;;;15.23;10.43;;;;;;;;;;4861342;29;20037;-91
2022/12/04 12:33:48;;;;;;;16.23;10.27;;;;;;;;;;4872589;29;20040;-95
2022/12/04 12:39:32;;;;;;;14.55;10.18;;;;;;;;;;4868440;29;20033;-93
2022/12/04 12:42:00;;;;;;;17.52;11.25;;;;;;;;;;4851749;29;20068;-93
2022/12/04 12:44:30;;;;;;;14.85;10.88;;;;;;;;;;4849571;29;20045;-90
2022/12/04 12:47:00;;;;;;;17.15;11.25;;;;;;;;;;4867825;29;20049;-92
2022/12/04 12:49:39;;;;;;;15.80;11.23;;;;;;;;;;4870131;29;20462;-91
2022/12/04 12:52:28;;;;;;;14.48;11.25;;;;;;;;;;4869135;29;20112;-90
2022/12/04 12:54:58;;;;;;;16.15;10.90;;;;;;;;;;4868890;29;20078;-90
2022/12/04 12:57:27;;;;;;;18.02;11.60;;;;;;;;;;4875849;29;20387;-90
2022/12/04 12:59:59;;;;;;;15.70;10.98;;;;;;;;;;4875406;29;20029;-89
2022/12/04 13:02:32;;;;;;;15.35;10.60;;;;;;;;;;4887664;29;20478;-94
2022/12/04 13:05:00;;;;;;;18.02;11.85;;;;;;;;;;4887955;29;20057;-93
2022/12/04 13:07:41;;;;;;;18.58;12.68;;;;;;;;;;4888061;29;20044;-92
2022/12/04 13:10:13;;;;;;;24.15;14.43;;;;;;;;;;4887764;29;20045;-94
2022/12/04 13:13:00;;;;;;;19.38;13.18;;;;;;;;;;4889812;29;20026;-94
2022/12/04 13:15:37;;;;;;;20.42;13.63;;;;;;;;;;4887717;29;20059;-94
2022/12/04 13:18:06;;;;;;;18.73;13.40;;;;;;;;;;4885230;29;20040;-93
2022/12/04 13:20:37;;;;;;;21.38;14.20;;;;;;;;;;4888650;29;20374;-92
2022/12/04 13:23:10;;;;;;;22.55;15.30;;;;;;;;;;4857973;29;20124;-93
2022/12/04 13:25:49;;;;;;;19.42;13.23;;;;;;;;;;4868712;29;20041;-93
2022/12/04 13:28:35;;;;;;;20.80;14.85;;;;;;;;;;4874237;29;20033;-94
2022/12/04 13:31:07;;;;;;;21.77;14.82;;;;;;;;;;4871517;29;20033;-90
2022/12/04 13:33:47;;;;;;;24.45;15.27;;;;;;;;;;4891619;29;20502;-89
2022/12/04 13:36:13;;;;;;;20.15;14.57;;;;;;;;;;4881410;29;20100;-90
2022/12/04 13:38:58;;;;;;;22.60;15.57;;;;;;;;;;4873154;29;20029;-93
2022/12/04 13:41:25;;;;;;;25.85;16.85;;;;;;;;;;4874186;29;20036;-91
2022/12/04 13:43:52;;;;;;;27.42;17.67;;;;;;;;;;4874986;29;20069;-92
2022/12/04 13:46:33;;;;;;;33.50;20.85;;;;;;;;;;4883494;29;20045;-94
2022/12/04 13:49:17;;;;;;;34.50;21.05;;;;;;;;;;4890331;29;20033;-93
2022/12/04 13:51:50;;;;;;;39.50;22.90;;;;;;;;;;4885659;29;20052;-92
2022/12/04 13:54:16;;;;;;;36.25;22.10;;;;;;;;;;4882254;29;20033;-92
2022/12/04 13:56:44;;;;;;;35.63;22.38;;;;;;;;;;4882714;29;20021;-91
2022/12/04 13:59:20;;;;;;;33.10;21.77;;;;;;;;;;4885447;29;20467;-90
2022/12/04 14:01:49;;;;;;;30.73;20.75;;;;;;;;;;4885137;29;20033;-91
2022/12/04 14:04:25;;;;;;;29.48;19.92;;;;;;;;;;4885259;29;20033;-91
2022/12/04 14:06:53;;;;;;;27.33;18.38;;;;;;;;;;4885368;29;20046;-91
2022/12/04 14:09:27;;;;;;;26.95;18.63;;;;;;;;;;4885973;29;20084;-91
2022/12/04 14:12:01;;;;;;;37.92;21.63;;;;;;;;;;4884495;29;20071;-92
2022/12/04 14:14:28;;;;;;;35.88;23.35;;;;;;;;;;4882948;29;20060;-93
2022/12/04 14:16:57;;;;;;;28.48;19.63;;;;;;;;;;4883961;29;20028;-93
2022/12/04 14:19:30;;;;;;;19.40;13.95;;;;;;;;;;4887775;29;20089;-92
2022/12/04 14:21:56;;;;;;;23.23;15.80;;;;;;;;;;4884983;29;20031;-91
2022/12/04 14:24:30;;;;;;;19.63;14.18;;;;;;;;;;4886026;29;20040;-90
2022/12/04 14:26:57;;;;;;;16.67;11.95;;;;;;;;;;4886518;29;20509;-90
2022/12/04 14:30:02;;;;;;;19.25;13.48;;;;;;;;;;4885152;29;20031;-91
2022/12/04 14:32:31;;;;;;;18.90;13.75;;;;;;;;;;4869354;29;20568;-87
2022/12/04 14:34:57;;;;;;;22.63;13.98;;;;;;;;;;4874641;29;20037;-90
2022/12/04 14:37:30;;;;;;;21.75;13.35;;;;;;;;;;4868551;29;20034;-92
2022/12/04 14:40:00;;;;;;;18.45;13.02;;;;;;;;;;4866316;29;20056;-91
2022/12/04 14:42:28;;;;;;;21.55;13.93;;;;;;;;;;4862126;29;20036;-91
2022/12/04 14:44:58;;;;;;;23.13;16.15;;;;;;;;;;4880170;29;20048;-91
2022/12/04 14:47:54;;;;;;;21.40;14.98;;;;;;;;;;4865528;29;20037;-92
2022/12/04 14:50:38;;;;;;;19.85;13.70;;;;;;;;;;4848054;29;20082;-88
2022/12/04 14:53:23;;;;;;;23.33;15.25;;;;;;;;;;4865463;29;20120;-94
2022/12/04 14:56:00;;;;;;;22.50;14.85;;;;;;;;;;4865877;29;20085;-91
2022/12/04 14:58:28;;;;;;;26.00;16.73;;;;;;;;;;4865708;29;20025;-89
2022/12/04 15:00:58;;;;;;;28.38;18.55;;;;;;;;;;4865918;29;20427;-92
2022/12/04 15:03:25;;;;;;;29.35;18.90;;;;;;;;;;4882287;29;20021;-89
2022/12/04 15:06:00;;;;;;;28.25;20.10;;;;;;;;;;4865601;29;20080;-91
2022/12/04 15:08:27;;;;;;;30.88;20.55;;;;;;;;;;4875377;29;20037;-93
2022/12/04 15:13:39;;;;;;;29.10;19.70;;;;;;;;;;4884593;29;20043;-90
2022/12/04 15:16:38;;;;;;;30.27;20.70;;;;;;;;;;4887261;29;20049;-91
2022/12/04 15:19:25;;;;;;;28.95;19.70;;;;;;;;;;4895452;29;20040;-93
2022/12/04 15:33:03;;;;;;;29.33;19.73;;;;;;;;;;4899923;29;20053;-90
2022/12/04 15:35:31;;;;;;;33.92;22.73;;;;;;;;;;4886327;29;20028;-92
2022/12/04 15:37:57;;;;;;;32.90;22.50;;;;;;;;;;4883803;29;20486;-93
2022/12/04 15:40:28;;;;;;;32.83;22.23;;;;;;;;;;4883831;29;20501;-93
2022/12/04 15:43:08;;;;;;;29.55;20.95;;;;;;;;;;4883964;29;20104;-95
2022/12/04 15:45:34;;;;;;;32.75;22.58;;;;;;;;;;4889133;29;20044;-94
2022/12/04 15:48:00;;;;;;;32.00;20.90;;;;;;;;;;4906059;29;20024;-93
2022/12/04 15:50:30;;;;;;;31.95;22.30;;;;;;;;;;4905994;29;20052;-92
2022/12/04 15:53:05;;;;;;;33.13;21.55;;;;;;;;;;4898398;29;20055;-93